| time (UTC) | temp F | wind direction | speed MPH | gust MPH | rain 1hr in | rain 24hr in | rain mn in | humidity % | barometer mb |
| 20260509152524 | 54 | 0 | 0.0 | 0.0 | 0.01 | 0.15 | 0.15 | 96 | 1013.2 |
| 20260509152023 | 54 | 0 | 0.0 | 0.0 | 0.01 | 0.15 | 0.15 | 95 | 1013.1 |
| 20260509151543 | 54 | 0 | 0.0 | 0.0 | 0.01 | 0.15 | 0.15 | 95 | 1013.3 |
| 20260509151023 | 54 | 0 | 0.0 | 0.0 | 0.01 | 0.15 | 0.15 | 96 | 1013.3 |
| 20260509150523 | 54 | 0 | 0.0 | 0.0 | 0.01 | 0.15 | 0.15 | 96 | 1013.4 |
| 20260509150039 | 54 | 0 | 0.0 | 0.0 | 0.01 | 0.15 | 0.15 | 96 | 1013.3 |
| 20260509145523 | 54 | 0 | 0.0 | 0.0 | 0.00 | 0.14 | 0.14 | 96 | 1013.5 |
| 20260509145025 | 53 | 0 | 0.0 | 0.0 | 0.00 | 0.14 | 0.14 | 96 | 1013.4 |
| 20260509144600 | 53 | 0 | 0.0 | 0.0 | 0.00 | 0.14 | 0.14 | 96 | 1013.3 |
| 20260509144024 | 53 | 0 | 0.0 | 0.0 | 0.00 | 0.14 | 0.14 | 96 | 1013.4 |
| 20260509143527 | 53 | 0 | 0.0 | 0.0 | 0.01 | 0.14 | 0.14 | 96 | 1013.3 |
| 20260509143045 | 53 | 0 | 0.0 | 0.0 | 0.01 | 0.14 | 0.14 | 96 | 1013.4 |
| 20260509142523 | 52 | 0 | 0.0 | 0.0 | 0.01 | 0.14 | 0.14 | 96 | 1013.3 |
| 20260509142023 | 52 | 0 | 0.0 | 0.0 | 0.01 | 0.14 | 0.14 | 96 | 1013.3 |
| 20260509141544 | 52 | 0 | 0.0 | 0.0 | 0.01 | 0.14 | 0.14 | 96 | 1013.2 |
| 20260509141023 | 52 | 0 | 0.0 | 0.0 | 0.01 | 0.14 | 0.14 | 96 | 1013.2 |
| 20260509140523 | 52 | 0 | 0.0 | 0.0 | 0.01 | 0.14 | 0.14 | 96 | 1013.3 |
| 20260509140100 | 52 | 0 | 0.0 | 0.0 | 0.02 | 0.14 | 0.14 | 96 | 1013.4 |
| 20260509135526 | 52 | 0 | 0.0 | 0.0 | 0.02 | 0.14 | 0.14 | 96 | 1013.4 |
| 20260509135026 | 52 | 0 | 0.0 | 0.0 | 0.02 | 0.14 | 0.14 | 96 | 1013.4 |
| 20260509134549 | 52 | 0 | 0.0 | 0.0 | 0.02 | 0.14 | 0.14 | 96 | 1013.5 |
| 20260509134022 | 52 | 0 | 0.0 | 0.0 | 0.02 | 0.14 | 0.14 | 96 | 1013.5 |
| 20260509133525 | 52 | 0 | 0.0 | 0.0 | 0.02 | 0.13 | 0.13 | 96 | 1013.5 |
| 20260509133042 | 52 | 0 | 0.0 | 0.0 | 0.02 | 0.13 | 0.13 | 96 | 1013.3 |
| 20260509132525 | 51 | 0 | 0.0 | 0.0 | 0.03 | 0.13 | 0.13 | 96 | 1013.4 |
| 20260509132026 | 51 | 0 | 0.0 | 0.0 | 0.03 | 0.13 | 0.13 | 96 | 1013.5 |
| 20260509131554 | 51 | 0 | 0.0 | 0.0 | 0.04 | 0.13 | 0.13 | 96 | 1013.4 |
| 20260509131023 | 51 | 0 | 0.0 | 0.0 | 0.04 | 0.13 | 0.13 | 96 | 1013.5 |
| 20260509130523 | 51 | 0 | 0.0 | 0.0 | 0.04 | 0.13 | 0.13 | 96 | 1013.6 |
| 20260509130044 | 51 | 0 | 0.0 | 0.0 | 0.03 | 0.12 | 0.12 | 96 | 1013.5 |
| 20260509125527 | 51 | 0 | 0.0 | 1.0 | 0.04 | 0.12 | 0.12 | 96 | 1013.5 |
| 20260509125025 | 51 | 0 | 0.0 | 1.0 | 0.04 | 0.12 | 0.12 | 96 | 1013.6 |
| 20260509124543 | 51 | 98 | 0.0 | 1.0 | 0.04 | 0.12 | 0.12 | 96 | 1013.6 |
| 20260509124023 | 51 | 98 | 0.0 | 1.0 | 0.04 | 0.12 | 0.12 | 96 | 1013.8 |
| 20260509123523 | 51 | 0 | 0.0 | 1.0 | 0.04 | 0.11 | 0.11 | 95 | 1013.8 |
| 20260509123041 | 51 | 97 | 0.0 | 1.0 | 0.04 | 0.11 | 0.11 | 95 | 1013.9 |
| 20260509122522 | 50 | 0 | 0.0 | 1.0 | 0.03 | 0.10 | 0.10 | 95 | 1013.9 |
| 20260509122023 | 50 | 0 | 0.0 | 1.0 | 0.03 | 0.10 | 0.10 | 95 | 1013.8 |
| 20260509121549 | 50 | 108 | 0.0 | 1.0 | 0.02 | 0.09 | 0.09 | 95 | 1013.8 |
| 20260509121026 | 50 | 0 | 0.0 | 1.0 | 0.02 | 0.09 | 0.09 | 95 | 1013.8 |
| 20260509120523 | 50 | 0 | 0.0 | 1.0 | 0.02 | 0.09 | 0.09 | 95 | 1013.9 |
| 20260509120044 | 50 | 0 | 0.0 | 1.0 | 0.02 | 0.09 | 0.09 | 95 | 1014.1 |
| 20260509115526 | 50 | 0 | 0.0 | 1.0 | 0.01 | 0.08 | 0.08 | 95 | 1014.0 |
| 20260509115023 | 50 | 0 | 0.0 | 1.0 | 0.01 | 0.08 | 0.08 | 95 | 1014.0 |
| 20260509114546 | 50 | 0 | 0.0 | 1.0 | 0.01 | 0.08 | 0.08 | 95 | 1014.0 |
| 20260509114023 | 50 | 0 | 0.0 | 0.0 | 0.02 | 0.08 | 0.08 | 95 | 1013.9 |
| 20260509113523 | 50 | 0 | 0.0 | 1.0 | 0.01 | 0.07 | 0.07 | 95 | 1013.8 |
| 20260509113042 | 50 | 0 | 0.0 | 3.0 | 0.01 | 0.07 | 0.07 | 95 | 1013.7 |
| 20260509112524 | 50 | 107 | 0.0 | 3.0 | 0.01 | 0.07 | 0.07 | 95 | 1013.6 |
| 20260509112024 | 50 | 107 | 1.0 | 3.0 | 0.01 | 0.07 | 0.07 | 95 | 1013.6 |
| 20260509111539 | 50 | 0 | 0.0 | 2.0 | 0.02 | 0.07 | 0.07 | 95 | 1013.5 |
| 20260509111023 | 50 | 0 | 0.0 | 2.0 | 0.02 | 0.07 | 0.07 | 95 | 1013.5 |
| 20260509110523 | 50 | 0 | 0.0 | 1.0 | 0.02 | 0.07 | 0.07 | 95 | 1013.5 |
| 20260509110040 | 50 | 115 | 0.0 | 1.0 | 0.02 | 0.07 | 0.07 | 94 | 1013.4 |
| 20260509105522 | 50 | 115 | 0.0 | 1.0 | 0.02 | 0.07 | 0.07 | 94 | 1013.4 |
| 20260509105023 | 50 | 115 | 0.0 | 1.0 | 0.02 | 0.07 | 0.07 | 94 | 1013.4 |
| 20260509104545 | 50 | 113 | 0.0 | 1.0 | 0.01 | 0.06 | 0.06 | 94 | 1013.3 |
| 20260509104024 | 50 | 0 | 0.0 | 1.0 | 0.02 | 0.06 | 0.06 | 94 | 1013.4 |
| 20260509103523 | 50 | 0 | 0.0 | 2.0 | 0.02 | 0.06 | 0.06 | 94 | 1013.4 |
| 20260509103045 | 50 | 0 | 0.0 | 2.0 | 0.02 | 0.06 | 0.06 | 94 | 1013.4 |
| 20260509102523 | 50 | 123 | 0.0 | 2.0 | 0.02 | 0.06 | 0.06 | 94 | 1013.4 |
| 20260509102024 | 50 | 122 | 0.0 | 1.0 | 0.03 | 0.06 | 0.06 | 94 | 1013.4 |
| 20260509101544 | 50 | 127 | 0.0 | 2.0 | 0.02 | 0.05 | 0.05 | 93 | 1013.6 |
| 20260509101025 | 50 | 127 | 0.0 | 2.0 | 0.02 | 0.05 | 0.05 | 93 | 1013.5 |
| 20260509100525 | 50 | 117 | 0.0 | 1.0 | 0.02 | 0.05 | 0.05 | 93 | 1013.7 |
| 20260509100043 | 50 | 0 | 0.0 | 2.0 | 0.02 | 0.05 | 0.05 | 93 | 1013.5 |
| 20260509095528 | 50 | 115 | 0.0 | 2.0 | 0.03 | 0.05 | 0.05 | 93 | 1013.5 |
| 20260509095025 | 50 | 123 | 0.0 | 1.0 | 0.03 | 0.05 | 0.05 | 92 | 1013.6 |
| 20260509094539 | 51 | 125 | 1.0 | 2.0 | 0.03 | 0.05 | 0.05 | 92 | 1013.9 |
| 20260509094023 | 51 | 0 | 0.0 | 2.0 | 0.02 | 0.04 | 0.04 | 92 | 1013.8 |
| 20260509093525 | 51 | 120 | 0.0 | 1.0 | 0.03 | 0.04 | 0.04 | 91 | 1013.9 |
| 20260509093039 | 51 | 120 | 0.0 | 1.0 | 0.04 | 0.04 | 0.04 | 90 | 1013.8 |
| 20260509092522 | 51 | 123 | 0.0 | 1.0 | 0.03 | 0.03 | 0.03 | 90 | 1013.9 |
| 20260509092022 | 51 | 0 | 0.0 | 2.0 | 0.03 | 0.03 | 0.03 | 89 | 1014.1 |
| 20260509091543 | 51 | 120 | 0.0 | 2.0 | 0.03 | 0.03 | 0.03 | 88 | 1014.0 |
| 20260509091024 | 52 | 0 | 0.0 | 1.0 | 0.03 | 0.03 | 0.03 | 87 | 1014.1 |
| 20260509090526 | 52 | 0 | 0.0 | 1.0 | 0.03 | 0.03 | 0.03 | 87 | 1014.0 |
| 20260509090054 | 52 | 0 | 0.0 | 1.0 | 0.03 | 0.03 | 0.03 | 86 | 1014.1 |
| 20260509085523 | 52 | 0 | 0.0 | 1.0 | 0.02 | 0.02 | 0.02 | 84 | 1014.2 |
| 20260509085023 | 53 | 0 | 0.0 | 1.0 | 0.02 | 0.02 | 0.02 | 84 | 1014.2 |
| 20260509084543 | 53 | 0 | 0.0 | 1.0 | 0.02 | 0.02 | 0.02 | 82 | 1014.1 |
| 20260509084023 | 54 | 0 | 0.0 | 1.0 | 0.02 | 0.02 | 0.02 | 80 | 1013.9 |
| 20260509083524 | 54 | 0 | 0.0 | 3.0 | 0.01 | 0.01 | 0.01 | 78 | 1014.0 |
| 20260509083048 | 55 | 0 | 1.0 | 3.0 | 0.00 | 0.00 | 0.00 | 76 | 1014.1 |
| 20260509082523 | 55 | 344 | 1.0 | 4.0 | 0.00 | 0.00 | 0.00 | 72 | 1014.1 |
| 20260509082023 | 55 | 294 | 1.0 | 7.0 | 0.00 | 0.00 | 0.00 | 71 | 1014.2 |
| 20260509081544 | 56 | 33 | 3.0 | 7.0 | 0.00 | 0.00 | 0.00 | 69 | 1014.1 |
| 20260509081024 | 56 | 9 | 3.0 | 7.0 | 0.00 | 0.00 | 0.00 | 68 | 1014.1 |
| 20260509080522 | 56 | 300 | 1.0 | 3.0 | 0.00 | 0.00 | 0.00 | 67 | 1013.8 |
| 20260509080047 | 56 | 328 | 0.0 | 2.0 | 0.00 | 0.00 | 0.00 | 68 | 1013.7 |
| 20260509075530 | 56 | 252 | 0.0 | 2.0 | 0.00 | 0.00 | 0.00 | 67 | 1013.4 |
| 20260509075025 | 56 | 270 | 0.0 | 2.0 | 0.00 | 0.00 | 0.00 | 66 | 1013.2 |
| 20260509074540 | 56 | 39 | 0.0 | 3.0 | 0.00 | 0.00 | 0.00 | 65 | 1013.0 |
| 20260509074025 | 56 | 45 | 1.0 | 3.0 | 0.00 | 0.00 | 0.00 | 66 | 1012.8 |
| 20260509073523 | 56 | 0 | 0.0 | 3.0 | 0.00 | 0.00 | 0.00 | 66 | 1012.8 |
| 20260509073045 | 56 | 39 | 0.0 | 3.0 | 0.00 | 0.00 | 0.00 | 66 | 1012.8 |
| 20260509072523 | 56 | 0 | 0.0 | 5.0 | 0.00 | 0.00 | 0.00 | 66 | 1012.7 |
| 20260509072022 | 56 | 0 | 1.0 | 5.0 | 0.00 | 0.00 | 0.00 | 66 | 1012.6 |
| 20260509071549 | 56 | 14 | 0.0 | 2.0 | 0.00 | 0.00 | 0.00 | 67 | 1012.6 |
| 20260509071025 | 56 | 0 | 0.0 | 0.0 | 0.00 | 0.00 | 0.00 | 66 | 1012.5 |
| 20260509070525 | 56 | 0 | 0.0 | 0.0 | 0.00 | 0.00 | 0.00 | 66 | 1012.6 |
| 20260509070046 | 56 | 0 | 0.0 | 0.0 | 0.00 | 0.00 | 0.00 | 64 | 1012.4 |
| 20260509065526 | 56 | 0 | 0.0 | 0.0 | 0.00 | 0.00 | 0.00 | 64 | 1012.4 |
| 20260509065026 | 56 | 0 | 0.0 | 0.0 | 0.00 | 0.00 | 0.00 | 63 | 1012.5 |
| 20260509064547 | 56 | 0 | 0.0 | 1.0 | 0.00 | 0.00 | 0.00 | 63 | 1012.4 |
| 20260509064029 | 56 | 0 | 0.0 | 2.0 | 0.00 | 0.00 | 0.00 | 62 | 1012.4 |
| 20260509063529 | 56 | 0 | 0.0 | 2.0 | 0.00 | 0.00 | 0.00 | 63 | 1012.4 |
| 20260509063041 | 56 | 0 | 0.0 | 2.0 | 0.00 | 0.00 | 0.00 | 63 | 1012.4 |
| 20260509062528 | 56 | 0 | 0.0 | 0.0 | 0.00 | 0.00 | 0.00 | 65 | 1012.5 |
| 20260509062031 | 56 | 0 | 0.0 | 0.0 | 0.00 | 0.00 | 0.00 | 63 | 1012.7 |
| 20260509061542 | 56 | 0 | 0.0 | 0.0 | 0.00 | 0.00 | 0.00 | 63 | 1012.6 |
| 20260509061026 | 56 | 0 | 0.0 | 0.0 | 0.00 | 0.00 | 0.00 | 65 | 1012.7 |
| 20260509060527 | 56 | 0 | 0.0 | 0.0 | 0.00 | 0.00 | 0.00 | 64 | 1012.8 |
| 20260509060043 | 55 | 0 | 0.0 | 0.0 | 0.00 | 0.00 | 0.00 | 65 | 1012.7 |
| 20260509055524 | 56 | 0 | 0.0 | 0.0 | 0.00 | 0.00 | 0.00 | 68 | 1012.8 |
| 20260509055026 | 56 | 0 | 0.0 | 0.0 | 0.00 | 0.00 | 0.00 | 65 | 1012.8 |
| 20260509054541 | 55 | 0 | 0.0 | 0.0 | 0.00 | 0.00 | 0.00 | 67 | 1012.8 |
| 20260509054028 | 56 | 0 | 0.0 | 0.0 | 0.00 | 0.00 | 0.00 | 70 | 1013.1 |
| 20260509053527 | 56 | 0 | 0.0 | 0.0 | 0.00 | 0.00 | 0.00 | 67 | 1013.0 |
| 20260509053107 | 57 | 0 | 0.0 | 0.0 | 0.00 | 0.00 | 0.00 | 68 | 1013.0 |
| 20260509052527 | 57 | 0 | 0.0 | 0.0 | 0.00 | 0.00 | 0.00 | 68 | 1013.2 |
| 20260509052024 | 58 | 0 | 0.0 | 0.0 | 0.00 | 0.00 | 0.00 | 60 | 1013.0 |
| 20260509051541 | 58 | 0 | 0.0 | 0.0 | 0.00 | 0.00 | 0.00 | 58 | 1013.0 |
| 20260509051024 | 57 | 0 | 0.0 | 0.0 | 0.00 | 0.00 | 0.00 | 59 | 1013.2 |
| 20260509050524 | 57 | 0 | 0.0 | 0.0 | 0.00 | 0.00 | 0.00 | 61 | 1013.5 |
| 20260509050044 | 57 | 0 | 0.0 | 0.0 | 0.00 | 0.00 | 0.00 | 61 | 1013.5 |
| 20260509045525 | 57 | 0 | 0.0 | 0.0 | 0.00 | 0.00 | 0.00 | 62 | 1013.5 |
| 20260509045025 | 57 | 0 | 0.0 | 0.0 | 0.00 | 0.00 | 0.00 | 62 | 1013.4 |
| 20260509044539 | 57 | 0 | 0.0 | 0.0 | 0.00 | 0.00 | 0.00 | 60 | 1013.4 |
| 20260509044027 | 57 | 0 | 0.0 | 0.0 | 0.00 | 0.00 | 0.00 | 59 | 1013.4 |
| 20260509043525 | 57 | 0 | 0.0 | 0.0 | 0.00 | 0.00 | 0.00 | 59 | 1013.6 |
| 20260509043101 | 57 | 0 | 0.0 | 0.0 | 0.00 | 0.00 | 0.00 | 62 | 1013.6 |
| 20260509042527 | 57 | 0 | 0.0 | 0.0 | 0.00 | 0.00 | 0.00 | 63 | 1013.7 |
| 20260509042025 | 57 | 0 | 0.0 | 0.0 | 0.00 | 0.00 | 0.00 | 64 | 1013.8 |
| 20260509041556 | 57 | 0 | 0.0 | 0.0 | 0.00 | 0.00 | 0.00 | 66 | 1013.8 |
| 20260509041024 | 57 | 0 | 0.0 | 0.0 | 0.00 | 0.00 | 0.00 | 64 | 1013.9 |
| 20260509040524 | 57 | 0 | 0.0 | 0.0 | 0.00 | 0.00 | 0.00 | 61 | 1013.9 |
| 20260509040055 | 58 | 0 | 0.0 | 0.0 | 0.00 | 0.00 | 0.00 | 61 | 1014.0 |
| 20260509035541 | 58 | 0 | 0.0 | 0.0 | 0.00 | 0.00 | 0.00 | 59 | 1013.8 |
| 20260509035024 | 57 | 0 | 0.0 | 0.0 | 0.00 | 0.00 | 0.00 | 60 | 1013.8 |
| 20260509034558 | 58 | 0 | 0.0 | 0.0 | 0.00 | 0.00 | 0.00 | 61 | 1013.9 |
| 20260509034025 | 58 | 0 | 0.0 | 0.0 | 0.00 | 0.00 | 0.00 | 61 | 1014.0 |
| 20260509033524 | 58 | 0 | 0.0 | 0.0 | 0.00 | 0.00 | 0.00 | 58 | 1013.8 |
| 20260509033039 | 58 | 0 | 0.0 | 0.0 | 0.00 | 0.00 | 0.00 | 59 | 1013.9 |
| 20260509032524 | 58 | 0 | 0.0 | 0.0 | 0.00 | 0.00 | 0.00 | 59 | 1013.9 |
| 20260509032024 | 58 | 0 | 0.0 | 0.0 | 0.00 | 0.00 | 0.00 | 58 | 1014.1 |
| 20260509031541 | 58 | 0 | 0.0 | 0.0 | 0.00 | 0.00 | 0.00 | 59 | 1014.0 |
| 20260509031024 | 58 | 0 | 0.0 | 0.0 | 0.00 | 0.00 | 0.00 | 58 | 1014.0 |
| 20260509030525 | 58 | 0 | 0.0 | 0.0 | 0.00 | 0.00 | 0.00 | 58 | 1014.1 |
| 20260509030046 | 58 | 0 | 0.0 | 0.0 | 0.00 | 0.00 | 0.00 | 57 | 1014.2 |
| 20260509025524 | 58 | 0 | 0.0 | 0.0 | 0.00 | 0.00 | 0.00 | 58 | 1014.2 |
| 20260509025024 | 58 | 0 | 0.0 | 0.0 | 0.00 | 0.00 | 0.00 | 58 | 1014.3 |
| 20260509024543 | 58 | 0 | 0.0 | 0.0 | 0.00 | 0.00 | 0.00 | 58 | 1014.3 |
| 20260509024028 | 58 | 0 | 0.0 | 0.0 | 0.00 | 0.00 | 0.00 | 60 | 1014.4 |
| 20260509023524 | 59 | 0 | 0.0 | 0.0 | 0.00 | 0.00 | 0.00 | 59 | 1014.3 |
| 20260509023041 | 59 | 0 | 0.0 | 0.0 | 0.00 | 0.00 | 0.00 | 56 | 1014.2 |
| 20260509022524 | 59 | 0 | 0.0 | 0.0 | 0.00 | 0.00 | 0.00 | 56 | 1014.1 |
| 20260509022024 | 59 | 0 | 0.0 | 0.0 | 0.00 | 0.00 | 0.00 | 56 | 1014.2 |
| 20260509021544 | 59 | 0 | 0.0 | 0.0 | 0.00 | 0.00 | 0.00 | 55 | 1014.1 |
| 20260509021025 | 59 | 0 | 0.0 | 0.0 | 0.00 | 0.00 | 0.00 | 55 | 1014.2 |
| 20260509020524 | 60 | 0 | 0.0 | 0.0 | 0.00 | 0.00 | 0.00 | 55 | 1014.2 |
| 20260509020050 | 59 | 0 | 0.0 | 0.0 | 0.00 | 0.00 | 0.00 | 54 | 1014.2 |
| 20260509015524 | 60 | 0 | 0.0 | 0.0 | 0.00 | 0.00 | 0.00 | 54 | 1014.3 |
| 20260509015024 | 60 | 0 | 0.0 | 0.0 | 0.00 | 0.00 | 0.00 | 54 | 1014.4 |
| 20260509014539 | 60 | 0 | 0.0 | 0.0 | 0.00 | 0.00 | 0.00 | 53 | 1014.1 |
| 20260509014027 | 60 | 0 | 0.0 | 0.0 | 0.00 | 0.00 | 0.00 | 53 | 1014.0 |
| 20260509013524 | 60 | 0 | 0.0 | 0.0 | 0.00 | 0.00 | 0.00 | 54 | 1014.1 |
| 20260509013050 | 60 | 0 | 0.0 | 0.0 | 0.00 | 0.00 | 0.00 | 53 | 1013.9 |
| 20260509012527 | 60 | 0 | 0.0 | 0.0 | 0.00 | 0.00 | 0.00 | 54 | 1013.9 |
| 20260509012024 | 60 | 0 | 0.0 | 0.0 | 0.00 | 0.00 | 0.00 | 54 | 1013.9 |
| 20260509011542 | 60 | 0 | 0.0 | 0.0 | 0.00 | 0.00 | 0.00 | 53 | 1013.8 |
| 20260509011023 | 60 | 0 | 0.0 | 0.0 | 0.00 | 0.00 | 0.00 | 53 | 1013.8 |
| 20260509010524 | 60 | 0 | 0.0 | 0.0 | 0.00 | 0.00 | 0.00 | 53 | 1013.8 |
| 20260509010052 | 60 | 0 | 0.0 | 0.0 | 0.00 | 0.00 | 0.00 | 54 | 1013.6 |
| 20260509005526 | 60 | 0 | 0.0 | 0.0 | 0.00 | 0.00 | 0.00 | 54 | 1013.7 |
| 20260509005028 | 60 | 0 | 0.0 | 0.0 | 0.00 | 0.00 | 0.00 | 54 | 1013.7 |
| 20260509004544 | 60 | 0 | 0.0 | 0.0 | 0.00 | 0.00 | 0.00 | 54 | 1013.7 |
| 20260509004045 | 60 | 0 | 0.0 | 0.0 | 0.00 | 0.00 | 0.00 | 53 | 1013.8 |
| 20260509003524 | 60 | 0 | 0.0 | 0.0 | 0.00 | 0.00 | 0.00 | 54 | 1013.7 |
| 20260509003041 | 61 | 0 | 0.0 | 0.0 | 0.00 | 0.00 | 0.00 | 53 | 1013.7 |
| 20260509002524 | 61 | 0 | 0.0 | 0.0 | 0.00 | 0.00 | 0.00 | 53 | 1013.7 |
| 20260509002024 | 61 | 0 | 0.0 | 0.0 | 0.00 | 0.00 | 0.00 | 53 | 1013.7 |
| 20260509001539 | 61 | 0 | 0.0 | 0.0 | 0.00 | 0.00 | 0.00 | 53 | 1013.7 |
| 20260509001025 | 61 | 0 | 0.0 | 1.0 | 0.00 | 0.00 | 0.00 | 53 | 1013.5 |
| 20260509000524 | 61 | 0 | 0.0 | 2.0 | 0.00 | 0.00 | 0.00 | 52 | 1013.6 |
| 20260509000043 | 61 | 0 | 0.0 | 2.0 | 0.00 | 0.00 | 0.00 | 52 | 1013.7 |
| 20260508235524 | 62 | 0 | 0.0 | 1.0 | 0.00 | 0.00 | 0.00 | 52 | 1013.7 |
| 20260508235025 | 62 | 0 | 0.0 | 2.0 | 0.00 | 0.00 | 0.00 | 53 | 1013.7 |
| 20260508234548 | 62 | 0 | 0.0 | 2.0 | 0.00 | 0.00 | 0.00 | 52 | 1013.8 |
| 20260508234026 | 62 | 39 | 0.0 | 1.0 | 0.00 | 0.00 | 0.00 | 52 | 1013.7 |
| 20260508233528 | 62 | 39 | 0.0 | 1.0 | 0.00 | 0.00 | 0.00 | 51 | 1013.6 |
| 20260508233045 | 62 | 0 | 0.0 | 1.0 | 0.00 | 0.00 | 0.00 | 52 | 1013.6 |
| 20260508232524 | 62 | 0 | 0.0 | 1.0 | 0.00 | 0.00 | 0.00 | 53 | 1013.7 |
| 20260508232023 | 62 | 0 | 0.0 | 1.0 | 0.00 | 0.00 | 0.00 | 50 | 1013.5 |
| 20260508231541 | 63 | 0 | 0.0 | 1.0 | 0.00 | 0.00 | 0.00 | 52 | 1013.5 |
| 20260508231027 | 63 | 70 | 0.0 | 1.0 | 0.00 | 0.00 | 0.00 | 54 | 1013.6 |
| 20260508230524 | 63 | 0 | 0.0 | 1.0 | 0.00 | 0.00 | 0.00 | 52 | 1013.6 |
| 20260508230049 | 64 | 0 | 0.0 | 3.0 | 0.00 | 0.00 | 0.00 | 49 | 1013.5 |
| 20260508225524 | 64 | 0 | 0.0 | 3.0 | 0.00 | 0.00 | 0.00 | 48 | 1013.6 |
| 20260508225024 | 64 | 117 | 0.0 | 5.0 | 0.00 | 0.00 | 0.00 | 48 | 1013.3 |
| 20260508224543 | 64 | 20 | 1.0 | 5.0 | 0.00 | 0.00 | 0.00 | 48 | 1013.3 |
| 20260508224024 | 65 | 345 | 1.0 | 4.0 | 0.00 | 0.00 | 0.00 | 47 | 1013.4 |
| 20260508223524 | 65 | 12 | 1.0 | 5.0 | 0.00 | 0.00 | 0.00 | 47 | 1013.4 |
| 20260508223039 | 65 | 30 | 1.0 | 5.0 | 0.00 | 0.00 | 0.00 | 48 | 1013.5 |
| 20260508222526 | 65 | 0 | 1.0 | 5.0 | 0.00 | 0.00 | 0.00 | 47 | 1013.5 |
| 20260508222023 | 65 | 37 | 2.0 | 4.0 | 0.00 | 0.00 | 0.00 | 47 | 1013.5 |
| 20260508221544 | 64 | 43 | 1.0 | 4.0 | 0.00 | 0.00 | 0.00 | 50 | 1013.5 |
| 20260508221024 | 63 | 8 | 2.0 | 3.0 | 0.00 | 0.00 | 0.00 | 47 | 1013.5 |
| 20260508220525 | 63 | 0 | 0.0 | 2.0 | 0.00 | 0.00 | 0.00 | 50 | 1013.8 |
| 20260508220047 | 63 | 8 | 1.0 | 2.0 | 0.00 | 0.00 | 0.00 | 51 | 1013.8 |
| 20260508215524 | 63 | 0 | 0.0 | 2.0 | 0.00 | 0.00 | 0.00 | 51 | 1013.8 |
| 20260508215024 | 64 | 339 | 1.0 | 3.0 | 0.00 | 0.00 | 0.00 | 50 | 1013.7 |
| 20260508214544 | 64 | 269 | 0.0 | 3.0 | 0.00 | 0.00 | 0.00 | 48 | 1013.7 |
| 20260508214024 | 64 | 247 | 2.0 | 3.0 | 0.00 | 0.00 | 0.00 | 48 | 1013.8 |
| 20260508213524 | 65 | 345 | 1.0 | 6.0 | 0.00 | 0.00 | 0.00 | 49 | 1013.9 |
| 20260508213046 | 65 | 251 | 1.0 | 6.0 | 0.00 | 0.00 | 0.00 | 49 | 1014.0 |
| 20260508212524 | 65 | 20 | 1.0 | 7.0 | 0.00 | 0.00 | 0.00 | 47 | 1013.9 |
| 20260508212024 | 66 | 304 | 2.0 | 7.0 | 0.00 | 0.00 | 0.00 | 47 | 1013.9 |
| 20260508211545 | 66 | 332 | 3.0 | 7.0 | 0.00 | 0.00 | 0.00 | 46 | 1013.8 |
| 20260508211027 | 66 | 34 | 1.0 | 5.0 | 0.00 | 0.00 | 0.00 | 47 | 1014.0 |
| 20260508210524 | 66 | 27 | 1.0 | 5.0 | 0.00 | 0.00 | 0.00 | 48 | 1013.9 |
| 20260508210046 | 66 | 339 | 1.0 | 4.0 | 0.00 | 0.00 | 0.00 | 48 | 1014.0 |
| 20260508205525 | 66 | 0 | 0.0 | 4.0 | 0.00 | 0.00 | 0.00 | 47 | 1014.1 |
| 20260508205025 | 65 | 322 | 2.0 | 3.0 | 0.00 | 0.00 | 0.00 | 47 | 1014.2 |
| 20260508204547 | 65 | 285 | 0.0 | 4.0 | 0.00 | 0.00 | 0.00 | 47 | 1014.2 |
| 20260508204026 | 65 | 297 | 2.0 | 4.0 | 0.00 | 0.00 | 0.00 | 48 | 1014.3 |
| 20260508203526 | 64 | 10 | 1.0 | 4.0 | 0.00 | 0.00 | 0.00 | 47 | 1014.4 |
| 20260508203042 | 64 | 342 | 2.0 | 4.0 | 0.00 | 0.00 | 0.00 | 48 | 1014.6 |
| 20260508202526 | 63 | 304 | 1.0 | 3.0 | 0.00 | 0.00 | 0.00 | 51 | 1014.6 |
| 20260508202024 | 63 | 23 | 1.0 | 5.0 | 0.00 | 0.00 | 0.00 | 49 | 1014.7 |
| 20260508201538 | 63 | 300 | 2.0 | 5.0 | 0.00 | 0.00 | 0.00 | 49 | 1014.8 |
| 20260508201027 | 63 | 348 | 2.0 | 5.0 | 0.00 | 0.00 | 0.00 | 50 | 1014.9 |
| 20260508200524 | 63 | 58 | 1.0 | 5.0 | 0.00 | 0.00 | 0.00 | 51 | 1015.2 |
| 20260508200051 | 63 | 287 | 2.0 | 9.0 | 0.00 | 0.00 | 0.00 | 49 | 1015.2 |
| 20260508195523 | 63 | 348 | 1.0 | 9.0 | 0.00 | 0.00 | 0.00 | 51 | 1015.3 |
| 20260508195024 | 63 | 59 | 2.0 | 9.0 | 0.00 | 0.00 | 0.00 | 50 | 1015.4 |
| 20260508194546 | 63 | 266 | 2.0 | 6.0 | 0.00 | 0.00 | 0.00 | 49 | 1015.5 |
| 20260508194023 | 63 | 32 | 2.0 | 6.0 | 0.00 | 0.00 | 0.00 | 49 | 1015.5 |
| 20260508193526 | 63 | 304 | 2.0 | 4.0 | 0.00 | 0.00 | 0.00 | 49 | 1015.6 |
| 20260508193050 | 64 | 316 | 1.0 | 4.0 | 0.00 | 0.00 | 0.00 | 50 | 1015.6 |
| 20260508192530 | 63 | 264 | 1.0 | 4.0 | 0.00 | 0.00 | 0.00 | 50 | 1015.7 |
| 20260508192024 | 62 | 23 | 1.0 | 4.0 | 0.00 | 0.00 | 0.00 | 51 | 1015.7 |
| 20260508191545 | 61 | 32 | 1.0 | 4.0 | 0.00 | 0.00 | 0.00 | 54 | 1015.8 |
| 20260508191026 | 60 | 78 | 0.0 | 2.0 | 0.00 | 0.00 | 0.00 | 56 | 1015.9 |
| 20260508190526 | 60 | 80 | 0.0 | 1.0 | 0.00 | 0.00 | 0.00 | 55 | 1016.0 |
| 20260508190044 | 60 | 0 | 0.0 | 2.0 | 0.00 | 0.00 | 0.00 | 55 | 1016.1 |
| 20260508185530 | 60 | 0 | 0.0 | 2.0 | 0.00 | 0.00 | 0.00 | 53 | 1016.3 |
| 20260508185024 | 60 | 266 | 1.0 | 2.0 | 0.00 | 0.00 | 0.00 | 55 | 1016.4 |
| 20260508184540 | 60 | 63 | 0.0 | 2.0 | 0.00 | 0.00 | 0.00 | 53 | 1016.4 |
| 20260508184023 | 60 | 0 | 0.0 | 3.0 | 0.00 | 0.00 | 0.00 | 54 | 1016.4 |
| 20260508183523 | 60 | 263 | 0.0 | 6.0 | 0.00 | 0.00 | 0.00 | 52 | 1016.4 |
| 20260508183047 | 61 | 290 | 1.0 | 6.0 | 0.00 | 0.00 | 0.00 | 52 | 1016.3 |
| 20260508182526 | 61 | 299 | 2.0 | 3.0 | 0.00 | 0.00 | 0.00 | 52 | 1016.3 |
| 20260508182023 | 61 | 31 | 2.0 | 3.0 | 0.00 | 0.00 | 0.00 | 54 | 1016.3 |
| 20260508181547 | 61 | 298 | 0.0 | 3.0 | 0.00 | 0.00 | 0.00 | 53 | 1016.4 |
| 20260508181023 | 61 | 255 | 1.0 | 3.0 | 0.00 | 0.00 | 0.00 | 55 | 1016.5 |
| 20260508180527 | 60 | 20 | 1.0 | 5.0 | 0.00 | 0.00 | 0.00 | 52 | 1016.4 |
| 20260508180045 | 61 | 20 | 2.0 | 7.0 | 0.00 | 0.00 | 0.00 | 51 | 1016.5 |
| 20260508175524 | 61 | 20 | 3.0 | 7.0 | 0.00 | 0.00 | 0.00 | 53 | 1016.5 |
| 20260508175027 | 60 | 7 | 1.0 | 6.0 | 0.00 | 0.00 | 0.00 | 52 | 1016.6 |
| 20260508174542 | 60 | 286 | 2.0 | 6.0 | 0.00 | 0.00 | 0.00 | 51 | 1016.7 |
| 20260508174026 | 60 | 278 | 1.0 | 5.0 | 0.00 | 0.00 | 0.00 | 53 | 1016.6 |
| 20260508173523 | 60 | 278 | 2.0 | 7.0 | 0.00 | 0.00 | 0.00 | 52 | 1016.8 |
| 20260508173045 | 60 | 321 | 2.0 | 7.0 | 0.00 | 0.00 | 0.00 | 51 | 1016.9 |
| 20260508172529 | 60 | 125 | 2.0 | 7.0 | 0.00 | 0.00 | 0.00 | 51 | 1016.7 |
| 20260508172024 | 60 | 320 | 2.0 | 5.0 | 0.00 | 0.00 | 0.00 | 51 | 1016.9 |
| 20260508171544 | 60 | 271 | 1.0 | 6.0 | 0.00 | 0.00 | 0.00 | 51 | 1016.9 |
| 20260508171024 | 60 | 294 | 3.0 | 6.0 | 0.00 | 0.00 | 0.00 | 51 | 1017.0 |
| 20260508170524 | 60 | 15 | 3.0 | 5.0 | 0.00 | 0.00 | 0.00 | 50 | 1016.9 |
| 20260508170054 | 60 | 251 | 1.0 | 6.0 | 0.00 | 0.00 | 0.00 | 51 | 1017.1 |
| 20260508165524 | 60 | 326 | 3.0 | 6.0 | 0.00 | 0.00 | 0.00 | 51 | 1017.2 |
| 20260508165023 | 60 | 319 | 2.0 | 5.0 | 0.00 | 0.00 | 0.00 | 52 | 1017.3 |
| 20260508164539 | 60 | 258 | 2.0 | 5.0 | 0.00 | 0.00 | 0.00 | 51 | 1017.4 |
| 20260508164027 | 60 | 283 | 3.0 | 5.0 | 0.00 | 0.00 | 0.00 | 51 | 1017.3 |
| 20260508163524 | 60 | 281 | 2.0 | 7.0 | 0.00 | 0.00 | 0.00 | 55 | 1017.4 |
| 20260508163041 | 60 | 245 | 1.0 | 7.0 | 0.00 | 0.00 | 0.00 | 52 | 1017.1 |
| 20260508162524 | 60 | 163 | 2.0 | 7.0 | 0.00 | 0.00 | 0.00 | 52 | 1017.1 |
| 20260508162023 | 60 | 234 | 2.0 | 5.0 | 0.00 | 0.00 | 0.00 | 50 | 1017.2 |
| 20260508161540 | 60 | 17 | 1.0 | 6.0 | 0.00 | 0.00 | 0.00 | 51 | 1017.2 |
| 20260508161024 | 60 | 231 | 1.0 | 6.0 | 0.00 | 0.00 | 0.00 | 54 | 1017.3 |
| 20260508160523 | 60 | 15 | 2.0 | 6.0 | 0.00 | 0.00 | 0.00 | 50 | 1017.3 |
| 20260508160040 | 59 | 143 | 2.0 | 6.0 | 0.00 | 0.00 | 0.00 | 52 | 1017.5 |
| 20260508155526 | 59 | 331 | 2.0 | 6.0 | 0.00 | 0.00 | 0.00 | 54 | 1017.6 |
| 20260508155024 | 59 | 1 | 2.0 | 7.0 | 0.00 | 0.00 | 0.00 | 51 | 1017.4 |
| 20260508154547 | 59 | 318 | 2.0 | 7.0 | 0.00 | 0.00 | 0.00 | 50 | 1017.5 |
| 20260508154023 | 59 | 323 | 3.0 | 7.0 | 0.00 | 0.00 | 0.00 | 52 | 1017.6 |
| 20260508153526 | 59 | 353 | 1.0 | 4.0 | 0.00 | 0.00 | 0.00 | 53 | 1017.5 |
| 20260508153047 | 58 | 359 | 1.0 | 5.0 | 0.00 | 0.00 | 0.00 | 55 | 1017.5 |